sensor_id;sensor_type;location;lat;lon;timestamp;pressure;altitude;pressure_sealevel;temperature;humidity
12785;BME280;6456;42.680;23.260;2024-01-11T00:00:32;95573.44;;;-3.60;100.00
12785;BME280;6456;42.680;23.260;2024-01-11T00:02:59;95561.94;;;-3.67;100.00
12785;BME280;6456;42.680;23.260;2024-01-11T00:05:26;95599.47;;;-3.52;100.00
12785;BME280;6456;42.680;23.260;2024-01-11T00:07:53;95570.34;;;-3.65;100.00
12785;BME280;6456;42.680;23.260;2024-01-11T00:10:20;95558.44;;;-3.79;100.00
12785;BME280;6456;42.680;23.260;2024-01-11T00:12:48;95601.84;;;-3.49;100.00
12785;BME280;6456;42.680;23.260;2024-01-11T00:15:16;95597.09;;;-3.55;100.00
12785;BME280;6456;42.680;23.260;2024-01-11T00:17:44;95530.38;;;-3.95;100.00
12785;BME280;6456;42.680;23.260;2024-01-11T00:20:11;95539.81;;;-3.95;100.00
12785;BME280;6456;42.680;23.260;2024-01-11T00:22:38;95598.97;;;-3.57;100.00
12785;BME280;6456;42.680;23.260;2024-01-11T00:25:06;95563.16;;;-3.85;100.00
12785;BME280;6456;42.680;23.260;2024-01-11T00:27:34;95560.38;;;-3.95;100.00
12785;BME280;6456;42.680;23.260;2024-01-11T00:30:01;95531.91;;;-4.05;100.00
12785;BME280;6456;42.680;23.260;2024-01-11T00:32:29;95595.03;;;-3.63;100.00
12785;BME280;6456;42.680;23.260;2024-01-11T00:34:57;95528.19;;;-4.01;100.00
12785;BME280;6456;42.680;23.260;2024-01-11T00:37:24;95564.63;;;-3.81;100.00
12785;BME280;6456;42.680;23.260;2024-01-11T00:39:51;95574.91;;;-3.69;100.00
12785;BME280;6456;42.680;23.260;2024-01-11T00:42:18;95552.34;;;-3.91;100.00
12785;BME280;6456;42.680;23.260;2024-01-11T00:44:46;95584.34;;;-3.69;100.00
12785;BME280;6456;42.680;23.260;2024-01-11T00:47:13;95544.56;;;-4.02;100.00
12785;BME280;6456;42.680;23.260;2024-01-11T00:49:41;95530.16;;;-4.04;100.00
12785;BME280;6456;42.680;23.260;2024-01-11T00:52:09;95587.97;;;-3.72;100.00
12785;BME280;6456;42.680;23.260;2024-01-11T00:54:39;95570.88;;;-3.73;100.00
12785;BME280;6456;42.680;23.260;2024-01-11T00:57:06;95565.00;;;-3.88;100.00
12785;BME280;6456;42.680;23.260;2024-01-11T00:59:33;95578.19;;;-3.79;100.00
12785;BME280;6456;42.680;23.260;2024-01-11T01:02:00;95549.06;;;-4.05;100.00
12785;BME280;6456;42.680;23.260;2024-01-11T01:04:42;95552.47;;;-3.92;100.00
12785;BME280;6456;42.680;23.260;2024-01-11T01:07:10;95545.06;;;-3.97;100.00
12785;BME280;6456;42.680;23.260;2024-01-11T01:09:37;95511.97;;;-4.14;100.00
12785;BME280;6456;42.680;23.260;2024-01-11T01:12:05;95566.47;;;-3.96;100.00
12785;BME280;6456;42.680;23.260;2024-01-11T01:14:32;95513.38;;;-4.22;100.00
12785;BME280;6456;42.680;23.260;2024-01-11T01:16:59;95566.47;;;-3.83;100.00
12785;BME280;6456;42.680;23.260;2024-01-11T01:19:26;95522.25;;;-4.14;100.00
12785;BME280;6456;42.680;23.260;2024-01-11T01:21:55;95510.19;;;-4.26;100.00
12785;BME280;6456;42.680;23.260;2024-01-11T01:24:22;95566.88;;;-3.77;100.00
12785;BME280;6456;42.680;23.260;2024-01-11T01:26:49;95573.97;;;-3.80;100.00
12785;BME280;6456;42.680;23.260;2024-01-11T01:29:16;95529.44;;;-4.06;100.00
12785;BME280;6456;42.680;23.260;2024-01-11T01:31:44;95539.50;;;-4.03;100.00
12785;BME280;6456;42.680;23.260;2024-01-11T01:34:11;95514.31;;;-4.23;100.00
12785;BME280;6456;42.680;23.260;2024-01-11T01:36:40;95569.25;;;-3.86;100.00
12785;BME280;6456;42.680;23.260;2024-01-11T01:39:09;95521.09;;;-4.10;100.00
12785;BME280;6456;42.680;23.260;2024-01-11T01:41:36;95501.38;;;-4.22;100.00
12785;BME280;6456;42.680;23.260;2024-01-11T01:44:03;95501.25;;;-4.20;100.00
12785;BME280;6456;42.680;23.260;2024-01-11T01:46:31;95506.50;;;-4.22;100.00
12785;BME280;6456;42.680;23.260;2024-01-11T01:48:59;95501.19;;;-4.19;100.00
12785;BME280;6456;42.680;23.260;2024-01-11T01:51:29;95544.88;;;-3.94;100.00
12785;BME280;6456;42.680;23.260;2024-01-11T01:53:58;95480.09;;;-4.24;100.00
12785;BME280;6456;42.680;23.260;2024-01-11T01:56:28;95474.97;;;-4.36;100.00
12785;BME280;6456;42.680;23.260;2024-01-11T01:58:57;95514.53;;;-4.14;100.00
12785;BME280;6456;42.680;23.260;2024-01-11T02:01:25;95535.72;;;-3.98;100.00
12785;BME280;6456;42.680;23.260;2024-01-11T02:03:54;95494.38;;;-4.20;100.00
12785;BME280;6456;42.680;23.260;2024-01-11T02:06:25;95532.53;;;-4.01;100.00
12785;BME280;6456;42.680;23.260;2024-01-11T02:08:52;95525.03;;;-4.04;100.00
12785;BME280;6456;42.680;23.260;2024-01-11T02:11:20;95484.41;;;-4.37;100.00
12785;BME280;6456;42.680;23.260;2024-01-11T02:13:50;95485.13;;;-4.35;100.00
12785;BME280;6456;42.680;23.260;2024-01-11T02:16:17;95520.91;;;-4.07;100.00
12785;BME280;6456;42.680;23.260;2024-01-11T02:18:44;95462.94;;;-4.48;100.00
12785;BME280;6456;42.680;23.260;2024-01-11T02:21:14;95483.16;;;-4.44;100.00
12785;BME280;6456;42.680;23.260;2024-01-11T02:23:43;95480.69;;;-4.45;100.00
12785;BME280;6456;42.680;23.260;2024-01-11T02:26:14;95473.72;;;-4.43;100.00
12785;BME280;6456;42.680;23.260;2024-01-11T02:28:44;95525.00;;;-4.17;100.00
12785;BME280;6456;42.680;23.260;2024-01-11T02:31:12;95465.88;;;-4.55;100.00
12785;BME280;6456;42.680;23.260;2024-01-11T02:33:41;95506.72;;;-4.25;100.00
12785;BME280;6456;42.680;23.260;2024-01-11T02:36:10;95477.84;;;-4.41;100.00
12785;BME280;6456;42.680;23.260;2024-01-11T02:38:38;95476.28;;;-4.56;100.00
12785;BME280;6456;42.680;23.260;2024-01-11T02:41:08;95468.78;;;-4.59;100.00
12785;BME280;6456;42.680;23.260;2024-01-11T02:43:37;95459.09;;;-4.68;100.00
12785;BME280;6456;42.680;23.260;2024-01-11T02:46:05;95473.47;;;-4.66;100.00
12785;BME280;6456;42.680;23.260;2024-01-11T02:48:32;95483.56;;;-4.50;100.00
12785;BME280;6456;42.680;23.260;2024-01-11T02:50:59;95483.66;;;-4.51;100.00
12785;BME280;6456;42.680;23.260;2024-01-11T02:53:26;95486.97;;;-4.49;100.00
12785;BME280;6456;42.680;23.260;2024-01-11T02:55:54;95439.53;;;-4.83;100.00
12785;BME280;6456;42.680;23.260;2024-01-11T02:58:21;95415.50;;;-4.95;100.00
12785;BME280;6456;42.680;23.260;2024-01-11T03:00:49;95465.88;;;-4.67;100.00
12785;BME280;6456;42.680;23.260;2024-01-11T03:03:17;95474.94;;;-4.62;100.00
12785;BME280;6456;42.680;23.260;2024-01-11T03:05:44;95498.38;;;-4.41;100.00
12785;BME280;6456;42.680;23.260;2024-01-11T03:08:11;95485.41;;;-4.52;100.00
12785;BME280;6456;42.680;23.260;2024-01-11T03:10:39;95447.75;;;-4.78;100.00
12785;BME280;6456;42.680;23.260;2024-01-11T03:13:07;95413.84;;;-4.96;100.00
12785;BME280;6456;42.680;23.260;2024-01-11T03:15:53;95438.44;;;-4.79;100.00
12785;BME280;6456;42.680;23.260;2024-01-11T03:18:20;95500.31;;;-4.44;100.00
12785;BME280;6456;42.680;23.260;2024-01-11T03:20:47;95511.00;;;-4.38;100.00
12785;BME280;6456;42.680;23.260;2024-01-11T03:23:14;95447.06;;;-4.80;100.00
12785;BME280;6456;42.680;23.260;2024-01-11T03:25:41;95500.53;;;-4.35;100.00
12785;BME280;6456;42.680;23.260;2024-01-11T03:28:08;95480.69;;;-4.45;100.00
12785;BME280;6456;42.680;23.260;2024-01-11T03:30:56;95489.94;;;-4.30;100.00
12785;BME280;6456;42.680;23.260;2024-01-11T03:33:33;95479.88;;;-4.46;100.00
12785;BME280;6456;42.680;23.260;2024-01-11T03:36:06;95460.94;;;-4.58;100.00
12785;BME280;6456;42.680;23.260;2024-01-11T03:38:33;95475.97;;;-4.51;100.00
12785;BME280;6456;42.680;23.260;2024-01-11T03:41:07;95498.47;;;-4.42;100.00
12785;BME280;6456;42.680;23.260;2024-01-11T03:43:36;95456.81;;;-4.73;100.00
12785;BME280;6456;42.680;23.260;2024-01-11T03:46:04;95455.19;;;-4.74;100.00
12785;BME280;6456;42.680;23.260;2024-01-11T03:48:32;95490.16;;;-4.46;100.00
12785;BME280;6456;42.680;23.260;2024-01-11T03:51:01;95462.16;;;-4.63;100.00
12785;BME280;6456;42.680;23.260;2024-01-11T03:53:28;95428.25;;;-4.81;100.00
12785;BME280;6456;42.680;23.260;2024-01-11T03:55:55;95467.13;;;-4.47;100.00
12785;BME280;6456;42.680;23.260;2024-01-11T03:58:22;95472.47;;;-4.50;100.00
12785;BME280;6456;42.680;23.260;2024-01-11T04:00:49;95483.25;;;-4.33;100.00
12785;BME280;6456;42.680;23.260;2024-01-11T04:03:18;95428.78;;;-4.63;100.00
12785;BME280;6456;42.680;23.260;2024-01-11T04:05:45;95433.00;;;-4.62;100.00
12785;BME280;6456;42.680;23.260;2024-01-11T04:08:12;95408.16;;;-4.74;100.00
12785;BME280;6456;42.680;23.260;2024-01-11T04:10:39;95474.34;;;-4.27;100.00
12785;BME280;6456;42.680;23.260;2024-01-11T04:13:06;95473.94;;;-4.34;100.00
12785;BME280;6456;42.680;23.260;2024-01-11T04:15:33;95460.38;;;-4.36;100.00
12785;BME280;6456;42.680;23.260;2024-01-11T04:18:01;95468.47;;;-4.29;100.00
12785;BME280;6456;42.680;23.260;2024-01-11T04:20:29;95455.75;;;-4.31;100.00
12785;BME280;6456;42.680;23.260;2024-01-11T04:22:56;95452.84;;;-4.39;100.00
12785;BME280;6456;42.680;23.260;2024-01-11T04:25:23;95460.25;;;-4.47;100.00
12785;BME280;6456;42.680;23.260;2024-01-11T04:27:50;95461.59;;;-4.41;100.00
12785;BME280;6456;42.680;23.260;2024-01-11T04:30:17;95459.34;;;-4.46;100.00
12785;BME280;6456;42.680;23.260;2024-01-11T04:32:44;95414.13;;;-4.74;100.00
12785;BME280;6456;42.680;23.260;2024-01-11T04:35:11;95480.69;;;-4.45;100.00
12785;BME280;6456;42.680;23.260;2024-01-11T04:37:40;95386.38;;;-4.94;100.00
12785;BME280;6456;42.680;23.260;2024-01-11T04:40:08;95469.69;;;-4.47;100.00
12785;BME280;6456;42.680;23.260;2024-01-11T04:42:35;95422.63;;;-4.73;100.00
12785;BME280;6456;42.680;23.260;2024-01-11T04:45:05;95447.00;;;-4.66;100.00
12785;BME280;6456;42.680;23.260;2024-01-11T04:47:34;95443.69;;;-4.68;100.00
12785;BME280;6456;42.680;23.260;2024-01-11T04:50:01;95472.06;;;-4.44;100.00
12785;BME280;6456;42.680;23.260;2024-01-11T04:52:28;95463.00;;;-4.50;100.00
12785;BME280;6456;42.680;23.260;2024-01-11T04:54:56;95486.75;;;-4.46;100.00
12785;BME280;6456;42.680;23.260;2024-01-11T04:57:23;95447.78;;;-4.66;100.00
12785;BME280;6456;42.680;23.260;2024-01-11T04:59:50;95461.97;;;-4.60;100.00
12785;BME280;6456;42.680;23.260;2024-01-11T05:02:20;95439.16;;;-4.77;100.00
12785;BME280;6456;42.680;23.260;2024-01-11T05:04:47;95477.31;;;-4.59;100.00
12785;BME280;6456;42.680;23.260;2024-01-11T05:07:14;95480.66;;;-4.58;100.00
12785;BME280;6456;42.680;23.260;2024-01-11T05:09:41;95425.97;;;-4.98;100.00
12785;BME280;6456;42.680;23.260;2024-01-11T05:12:10;95460.41;;;-4.75;100.00
12785;BME280;6456;42.680;23.260;2024-01-11T05:14:37;95435.53;;;-4.87;100.00
12785;BME280;6456;42.680;23.260;2024-01-11T05:17:04;95468.78;;;-4.59;100.00
12785;BME280;6456;42.680;23.260;2024-01-11T05:19:31;95434.22;;;-4.80;100.00
12785;BME280;6456;42.680;23.260;2024-01-11T05:21:58;95467.63;;;-4.55;100.00
12785;BME280;6456;42.680;23.260;2024-01-11T05:24:25;95458.56;;;-4.61;100.00
12785;BME280;6456;42.680;23.260;2024-01-11T05:26:51;95440.00;;;-4.64;100.00
12785;BME280;6456;42.680;23.260;2024-01-11T05:29:20;95430.75;;;-4.67;100.00
12785;BME280;6456;42.680;23.260;2024-01-11T05:31:47;95453.75;;;-4.53;100.00
12785;BME280;6456;42.680;23.260;2024-01-11T05:34:14;95446.19;;;-4.54;100.00
12785;BME280;6456;42.680;23.260;2024-01-11T05:36:41;95452.22;;;-4.55;100.00
12785;BME280;6456;42.680;23.260;2024-01-11T05:39:08;95405.97;;;-4.80;100.00
12785;BME280;6456;42.680;23.260;2024-01-11T05:41:35;95446.25;;;-4.56;100.00
12785;BME280;6456;42.680;23.260;2024-01-11T05:44:02;95442.16;;;-4.58;100.00
12785;BME280;6456;42.680;23.260;2024-01-11T05:46:31;95449.75;;;-4.57;100.00
12785;BME280;6456;42.680;23.260;2024-01-11T05:48:58;95437.94;;;-4.59;100.00
12785;BME280;6456;42.680;23.260;2024-01-11T05:51:25;95443.09;;;-4.59;100.00
12785;BME280;6456;42.680;23.260;2024-01-11T05:53:55;95427.25;;;-4.66;100.00
12785;BME280;6456;42.680;23.260;2024-01-11T05:56:24;95396.72;;;-4.83;100.00
12785;BME280;6456;42.680;23.260;2024-01-11T05:58:51;95429.31;;;-4.58;100.00
12785;BME280;6456;42.680;23.260;2024-01-11T06:01:18;95428.28;;;-4.56;100.00
12785;BME280;6456;42.680;23.260;2024-01-11T06:03:49;95344.34;;;-5.05;100.00
12785;BME280;6456;42.680;23.260;2024-01-11T06:06:16;95416.78;;;-4.63;100.00
12785;BME280;6456;42.680;23.260;2024-01-11T06:08:43;95426.53;;;-4.55;100.00
12785;BME280;6456;42.680;23.260;2024-01-11T06:11:10;95354.63;;;-5.05;100.00
12785;BME280;6456;42.680;23.260;2024-01-11T06:13:36;95425.00;;;-4.58;100.00
12785;BME280;6456;42.680;23.260;2024-01-11T06:16:04;95418.00;;;-4.68;100.00
12785;BME280;6456;42.680;23.260;2024-01-11T06:18:31;95378.97;;;-4.86;100.00
12785;BME280;6456;42.680;23.260;2024-01-11T06:20:59;95378.34;;;-4.89;100.00
12785;BME280;6456;42.680;23.260;2024-01-11T06:23:26;95423.97;;;-4.55;100.00
12785;BME280;6456;42.680;23.260;2024-01-11T06:25:53;95389.53;;;-4.78;100.00
12785;BME280;6456;42.680;23.260;2024-01-11T06:28:21;95404.88;;;-4.64;100.00
12785;BME280;6456;42.680;23.260;2024-01-11T06:30:48;95397.88;;;-4.62;100.00
12785;BME280;6456;42.680;23.260;2024-01-11T06:33:15;95413.69;;;-4.55;100.00
12785;BME280;6456;42.680;23.260;2024-01-11T06:35:42;95401.28;;;-4.61;100.00
12785;BME280;6456;42.680;23.260;2024-01-11T06:38:11;95402.00;;;-4.59;100.00
12785;BME280;6456;42.680;23.260;2024-01-11T06:40:38;95339.94;;;-4.91;100.00
12785;BME280;6456;42.680;23.260;2024-01-11T06:43:05;95405.78;;;-4.39;100.00
12785;BME280;6456;42.680;23.260;2024-01-11T06:45:32;95370.47;;;-4.61;100.00
12785;BME280;6456;42.680;23.260;2024-01-11T06:48:00;95376.72;;;-4.53;100.00
12785;BME280;6456;42.680;23.260;2024-01-11T06:50:27;95386.28;;;-4.42;100.00
12785;BME280;6456;42.680;23.260;2024-01-11T06:52:54;95337.28;;;-4.89;100.00
12785;BME280;6456;42.680;23.260;2024-01-11T06:55:23;95381.47;;;-4.59;100.00
12785;BME280;6456;42.680;23.260;2024-01-11T06:57:50;95402.19;;;-4.37;100.00
12785;BME280;6456;42.680;23.260;2024-01-11T07:00:17;95383.50;;;-4.39;100.00
12785;BME280;6456;42.680;23.260;2024-01-11T07:02:45;95327.63;;;-4.73;100.00
12785;BME280;6456;42.680;23.260;2024-01-11T07:05:12;95411.94;;;-4.29;100.00
12785;BME280;6456;42.680;23.260;2024-01-11T07:07:39;95365.03;;;-4.57;100.00
12785;BME280;6456;42.680;23.260;2024-01-11T07:10:06;95340.06;;;-4.67;100.00
12785;BME280;6456;42.680;23.260;2024-01-11T07:12:35;95380.81;;;-4.50;100.00
12785;BME280;6456;42.680;23.260;2024-01-11T07:15:04;95347.34;;;-4.61;99.78
12785;BME280;6456;42.680;23.260;2024-01-11T07:17:33;95411.44;;;-4.22;99.48
12785;BME280;6456;42.680;23.260;2024-01-11T07:20:00;95403.09;;;-4.25;98.44
12785;BME280;6456;42.680;23.260;2024-01-11T07:22:29;95411.22;;;-4.19;98.13
12785;BME280;6456;42.680;23.260;2024-01-11T07:24:56;95411.75;;;-4.14;98.51
12785;BME280;6456;42.680;23.260;2024-01-11T07:27:23;95386.94;;;-4.15;98.10
12785;BME280;6456;42.680;23.260;2024-01-11T07:29:52;95383.03;;;-4.08;98.32
12785;BME280;6456;42.680;23.260;2024-01-11T07:32:19;95397.56;;;-3.83;98.80
12785;BME280;6456;42.680;23.260;2024-01-11T07:34:46;95403.13;;;-3.76;98.82
12785;BME280;6456;42.680;23.260;2024-01-11T07:37:13;95375.91;;;-3.92;98.22
12785;BME280;6456;42.680;23.260;2024-01-11T07:39:40;95400.38;;;-3.86;97.77
12785;BME280;6456;42.680;23.260;2024-01-11T07:42:07;95380.97;;;-4.03;97.81
12785;BME280;6456;42.680;23.260;2024-01-11T07:44:34;95392.44;;;-3.96;97.98
12785;BME280;6456;42.680;23.260;2024-01-11T07:47:03;95335.00;;;-4.31;97.48
12785;BME280;6456;42.680;23.260;2024-01-11T07:49:30;95396.31;;;-3.77;98.10
12785;BME280;6456;42.680;23.260;2024-01-11T07:51:57;95399.88;;;-3.67;97.68
12785;BME280;6456;42.680;23.260;2024-01-11T07:54:24;95375.16;;;-3.81;97.83
12785;BME280;6456;42.680;23.260;2024-01-11T07:56:51;95361.06;;;-3.88;98.09
12785;BME280;6456;42.680;23.260;2024-01-11T07:59:18;95316.78;;;-3.92;98.52
12785;BME280;6456;42.680;23.260;2024-01-11T08:01:45;95364.88;;;-3.57;98.68
12785;BME280;6456;42.680;23.260;2024-01-11T08:04:15;95371.50;;;-3.42;98.62
12785;BME280;6456;42.680;23.260;2024-01-11T08:06:42;95382.28;;;-3.37;98.12
12785;BME280;6456;42.680;23.260;2024-01-11T08:09:09;95388.59;;;-3.41;97.54
12785;BME280;6456;42.680;23.260;2024-01-11T08:11:36;95380.38;;;-3.46;97.56
12785;BME280;6456;42.680;23.260;2024-01-11T08:14:04;95385.06;;;-3.40;97.76
12785;BME280;6456;42.680;23.260;2024-01-11T08:16:31;95345.47;;;-3.61;98.26
12785;BME280;6456;42.680;23.260;2024-01-11T08:19:01;95322.94;;;-3.70;98.62
12785;BME280;6456;42.680;23.260;2024-01-11T08:21:29;95373.72;;;-3.38;99.19
12785;BME280;6456;42.680;23.260;2024-01-11T08:23:56;95372.25;;;-3.29;99.30
12785;BME280;6456;42.680;23.260;2024-01-11T08:26:23;95354.75;;;-3.24;98.48
12785;BME280;6456;42.680;23.260;2024-01-11T08:28:50;95368.84;;;-3.06;98.32
12785;BME280;6456;42.680;23.260;2024-01-11T08:31:19;95367.56;;;-3.00;97.96
12785;BME280;6456;42.680;23.260;2024-01-11T08:33:46;95361.44;;;-3.10;97.73
12785;BME280;6456;42.680;23.260;2024-01-11T08:36:13;95376.38;;;-2.92;97.60
12785;BME280;6456;42.680;23.260;2024-01-11T08:38:42;95376.03;;;-2.87;97.45
12785;BME280;6456;42.680;23.260;2024-01-11T08:41:09;95340.03;;;-3.11;96.38
12785;BME280;6456;42.680;23.260;2024-01-11T08:43:36;95372.41;;;-2.85;96.74
12785;BME280;6456;42.680;23.260;2024-01-11T08:46:03;95360.31;;;-2.95;96.87
12785;BME280;6456;42.680;23.260;2024-01-11T08:48:30;95366.81;;;-2.79;96.71
12785;BME280;6456;42.680;23.260;2024-01-11T08:50:57;95360.50;;;-2.64;95.96
12785;BME280;6456;42.680;23.260;2024-01-11T08:53:24;95372.94;;;-2.46;95.00
12785;BME280;6456;42.680;23.260;2024-01-11T08:55:52;95369.66;;;-2.37;94.24
12785;BME280;6456;42.680;23.260;2024-01-11T08:58:19;95371.31;;;-2.25;93.92
12785;BME280;6456;42.680;23.260;2024-01-11T09:00:46;95336.25;;;-2.28;93.83
12785;BME280;6456;42.680;23.260;2024-01-11T09:03:13;95307.44;;;-2.33;93.49
12785;BME280;6456;42.680;23.260;2024-01-11T09:05:42;95337.06;;;-2.05;92.64
12785;BME280;6456;42.680;23.260;2024-01-11T09:08:09;95343.28;;;-1.97;92.16
12785;BME280;6456;42.680;23.260;2024-01-11T09:10:36;95350.44;;;-1.78;93.05
12785;BME280;6456;42.680;23.260;2024-01-11T09:13:05;95272.97;;;-2.10;93.84
12785;BME280;6456;42.680;23.260;2024-01-11T09:15:32;95306.91;;;-1.82;92.39
12785;BME280;6456;42.680;23.260;2024-01-11T09:17:59;95286.63;;;-1.76;91.49
12785;BME280;6456;42.680;23.260;2024-01-11T09:20:26;95276.75;;;-1.71;89.57
12785;BME280;6456;42.680;23.260;2024-01-11T09:22:53;95295.19;;;-1.44;87.88
12785;BME280;6456;42.680;23.260;2024-01-11T09:25:20;95270.09;;;-1.53;87.32
12785;BME280;6456;42.680;23.260;2024-01-11T09:27:49;95249.97;;;-1.59;86.26
12785;BME280;6456;42.680;23.260;2024-01-11T09:30:17;95313.81;;;-1.08;86.11
12785;BME280;6456;42.680;23.260;2024-01-11T09:32:44;95299.19;;;-0.98;85.69
12785;BME280;6456;42.680;23.260;2024-01-11T09:35:11;95306.16;;;-0.89;85.17
12785;BME280;6456;42.680;23.260;2024-01-11T09:37:39;95270.34;;;-1.03;85.30
12785;BME280;6456;42.680;23.260;2024-01-11T09:40:07;95271.47;;;-0.96;83.98
12785;BME280;6456;42.680;23.260;2024-01-11T09:42:36;95288.22;;;-0.91;84.11
12785;BME280;6456;42.680;23.260;2024-01-11T09:45:07;95289.22;;;-0.82;84.14
12785;BME280;6456;42.680;23.260;2024-01-11T09:47:37;95278.88;;;-0.82;83.85
12785;BME280;6456;42.680;23.260;2024-01-11T09:50:06;95284.41;;;-0.66;83.68
12785;BME280;6456;42.680;23.260;2024-01-11T09:52:33;95277.78;;;-0.59;83.23
12785;BME280;6456;42.680;23.260;2024-01-11T09:55:01;95267.88;;;-0.54;82.77
12785;BME280;6456;42.680;23.260;2024-01-11T09:57:30;95256.94;;;-0.57;82.45
12785;BME280;6456;42.680;23.260;2024-01-11T09:59:58;95245.25;;;-0.61;82.10
12785;BME280;6456;42.680;23.260;2024-01-11T10:02:26;95268.03;;;-0.46;80.99
12785;BME280;6456;42.680;23.260;2024-01-11T10:04:54;95257.03;;;-0.48;80.58
12785;BME280;6456;42.680;23.260;2024-01-11T10:07:22;95247.03;;;-0.52;80.88
12785;BME280;6456;42.680;23.260;2024-01-11T10:09:50;95224.41;;;-0.70;80.74
12785;BME280;6456;42.680;23.260;2024-01-11T10:12:18;95242.47;;;-0.39;80.56
12785;BME280;6456;42.680;23.260;2024-01-11T10:14:50;95228.19;;;-0.43;80.41
12785;BME280;6456;42.680;23.260;2024-01-11T10:17:17;95237.22;;;-0.28;79.88
12785;BME280;6456;42.680;23.260;2024-01-11T10:19:44;95184.31;;;-0.64;80.33
12785;BME280;6456;42.680;23.260;2024-01-11T10:22:13;95183.31;;;-0.73;81.04
12785;BME280;6456;42.680;23.260;2024-01-11T10:24:42;95189.66;;;-0.86;81.40
12785;BME280;6456;42.680;23.260;2024-01-11T10:27:17;95192.03;;;-0.74;81.25
12785;BME280;6456;42.680;23.260;2024-01-11T10:29:48;95218.31;;;-0.59;80.71
12785;BME280;6456;42.680;23.260;2024-01-11T10:32:20;95135.47;;;-1.07;80.88
12785;BME280;6456;42.680;23.260;2024-01-11T10:35:05;95144.88;;;-0.96;81.62
12785;BME280;6456;42.680;23.260;2024-01-11T10:37:44;95196.59;;;-0.47;82.49
12785;BME280;6456;42.680;23.260;2024-01-11T10:40:12;95194.75;;;-0.35;81.78
12785;BME280;6456;42.680;23.260;2024-01-11T10:42:41;95170.06;;;-0.49;82.09
12785;BME280;6456;42.680;23.260;2024-01-11T10:45:14;95173.22;;;-0.36;82.79
12785;BME280;6456;42.680;23.260;2024-01-11T10:47:49;95173.00;;;-0.14;81.90
12785;BME280;6456;42.680;23.260;2024-01-11T10:50:18;95154.72;;;-0.22;81.47
12785;BME280;6456;42.680;23.260;2024-01-11T10:52:56;95159.38;;;-0.16;81.20
12785;BME280;6456;42.680;23.260;2024-01-11T10:55:31;95172.47;;;0.12;81.23
12785;BME280;6456;42.680;23.260;2024-01-11T10:57:59;95170.53;;;0.33;80.06
12785;BME280;6456;42.680;23.260;2024-01-11T11:00:27;95136.25;;;0.12;79.95
12785;BME280;6456;42.680;23.260;2024-01-11T11:02:54;95117.28;;;0.21;79.66
12785;BME280;6456;42.680;23.260;2024-01-11T11:05:22;95155.69;;;0.54;79.56
12785;BME280;6456;42.680;23.260;2024-01-11T11:07:51;95118.78;;;0.23;78.97
12785;BME280;6456;42.680;23.260;2024-01-11T11:10:19;95112.38;;;0.37;78.81
12785;BME280;6456;42.680;23.260;2024-01-11T11:12:48;95140.69;;;0.67;78.11
12785;BME280;6456;42.680;23.260;2024-01-11T11:15:16;95130.13;;;0.78;77.38
12785;BME280;6456;42.680;23.260;2024-01-11T11:17:43;95112.44;;;0.74;76.93
12785;BME280;6456;42.680;23.260;2024-01-11T11:20:11;95096.06;;;0.73;76.44
12785;BME280;6456;42.680;23.260;2024-01-11T11:22:40;95119.97;;;1.04;75.99
12785;BME280;6456;42.680;23.260;2024-01-11T11:25:10;95083.47;;;0.88;75.42
12785;BME280;6456;42.680;23.260;2024-01-11T11:27:37;95104.13;;;1.07;75.49
12785;BME280;6456;42.680;23.260;2024-01-11T11:30:05;95101.00;;;1.03;75.61
12785;BME280;6456;42.680;23.260;2024-01-11T11:32:35;95105.66;;;1.00;76.97
12785;BME280;6456;42.680;23.260;2024-01-11T11:35:04;95084.78;;;1.01;78.24
12785;BME280;6456;42.680;23.260;2024-01-11T11:37:31;95035.38;;;0.76;77.91
12785;BME280;6456;42.680;23.260;2024-01-11T11:39:58;95053.78;;;0.82;79.23
12785;BME280;6456;42.680;23.260;2024-01-11T11:42:30;95030.53;;;0.63;80.44
12785;BME280;6456;42.680;23.260;2024-01-11T11:44:58;95071.97;;;1.00;81.47
12785;BME280;6456;42.680;23.260;2024-01-11T11:47:32;95065.09;;;1.08;81.71
12785;BME280;6456;42.680;23.260;2024-01-11T11:50:04;95062.31;;;1.19;80.97
12785;BME280;6456;42.680;23.260;2024-01-11T11:52:33;95042.31;;;1.12;80.78
12785;BME280;6456;42.680;23.260;2024-01-11T11:55:01;95064.13;;;1.37;80.89
12785;BME280;6456;42.680;23.260;2024-01-11T11:57:30;95029.59;;;1.18;81.13
12785;BME280;6456;42.680;23.260;2024-01-11T11:59:58;95058.31;;;1.52;81.89
12785;BME280;6456;42.680;23.260;2024-01-11T12:02:26;95044.97;;;1.47;82.25
12785;BME280;6456;42.680;23.260;2024-01-11T12:04:53;95040.53;;;1.57;82.49
12785;BME280;6456;42.680;23.260;2024-01-11T12:07:21;95040.16;;;1.70;82.67
12785;BME280;6456;42.680;23.260;2024-01-11T12:09:48;95027.22;;;1.78;82.88
12785;BME280;6456;42.680;23.260;2024-01-11T12:12:16;95021.25;;;1.77;82.71
12785;BME280;6456;42.680;23.260;2024-01-11T12:14:47;95012.19;;;1.81;82.90
12785;BME280;6456;42.680;23.260;2024-01-11T12:17:15;95020.88;;;1.90;83.57
12785;BME280;6456;42.680;23.260;2024-01-11T12:19:42;95014.25;;;1.95;83.66
12785;BME280;6456;42.680;23.260;2024-01-11T12:22:09;95011.59;;;2.05;83.85
12785;BME280;6456;42.680;23.260;2024-01-11T12:24:36;95007.53;;;2.11;83.15
12785;BME280;6456;42.680;23.260;2024-01-11T12:27:04;95000.81;;;2.18;83.04
12785;BME280;6456;42.680;23.260;2024-01-11T12:29:31;94999.72;;;2.28;82.04
12785;BME280;6456;42.680;23.260;2024-01-11T12:32:00;95000.41;;;2.30;81.90
12785;BME280;6456;42.680;23.260;2024-01-11T12:34:28;94997.81;;;2.38;81.50
12785;BME280;6456;42.680;23.260;2024-01-11T12:36:55;94951.16;;;2.21;80.71
12785;BME280;6456;42.680;23.260;2024-01-11T12:39:26;94991.84;;;2.38;80.33
12785;BME280;6456;42.680;23.260;2024-01-11T12:41:54;94989.75;;;2.41;81.31
12785;BME280;6456;42.680;23.260;2024-01-11T12:44:22;94954.63;;;2.29;80.64
12785;BME280;6456;42.680;23.260;2024-01-11T12:46:50;94984.75;;;2.48;80.40
12785;BME280;6456;42.680;23.260;2024-01-11T12:49:19;94964.75;;;2.40;79.98
12785;BME280;6456;42.680;23.260;2024-01-11T12:51:46;94950.06;;;2.31;80.04
12785;BME280;6456;42.680;23.260;2024-01-11T12:54:14;94958.53;;;2.33;80.71
12785;BME280;6456;42.680;23.260;2024-01-11T12:56:44;94950.03;;;2.23;80.90
12785;BME280;6456;42.680;23.260;2024-01-11T12:59:14;94956.03;;;2.49;80.98